NWS Home NWS Lubbock West Texas Mesonet Day over Day changes as of 1233 PM, Sat Mar 25, 2017

Latest   N   C   S   Daily Sum   3hrΔ   24hrΔ   Soil Data 
Site Map   24hr Precip   72hr Precip   Google Plot


Station Time of Last Temp Today Temp Yesterday Delta-T Dewpoint Today Dewpoint Yesterday Delta-Td Delta-Pressure (mB)
Reese Center  12:25 PM 61.5 63.9 -2.4 30 30.3 -0.3 9.6
Abernathy  12:25 PM 61.7 63.6 -1.9 31.9 33.7 -1.7 10.4
Plainview  12:25 PM 61.7 59.6 2.1 31.7 37.2 -5.5 10.9
Tahoka  12:25 PM 63.4 65.5 -2.1 28.3 28.1 0.2 8.9
Slaton  12:25 PM 63.4 64.7 -1.3 28.7 30.5 -1.8 9.3
Levelland  12:25 PM 61.6 65.2 -3.6 29.8 29.9 -0.1 8.9
Roaring Springs  12:25 PM 62.9 64.7 -1.8 31.5 36 -4.5 10.1
Floydada  12:25 PM 63.9 60.5 3.4 23.7 32 -8.2 10.3
Ralls  12:25 PM 64.4 63.9 0.5 27.5 32.1 -4.6 9.7
Brownfield  12:20 PM 61 66.3 -5.2 31.7 29.4 2.4 9
Muleshoe  12:25 PM 59.6 61.1 -1.6 30.4 31.4 -1 9.3
Morton  12:25 PM 61.9 59 2.8 28.4 32.6 -4.2 8.3
O'Donnell  12:25 PM 64 65.5 -1.5 26.3 26.5 -0.2 8.2
Seagraves  12:25 PM 61.1 66.4 -5.3 31.4 28.1 3.3 8.1
Amherst  12:25 PM 59.6 58 1.7 30.7 37.3 -6.6 9.5
Plains  12:25 PM 62.1 64.3 -2.3 30.2 29.2 1 8.2
Lamesa  12:25 PM 64.6 65.2 -0.6 32.5 29.1 3.4 8
Hart  12:25 PM 59.2 55.1 4.1 31.7 36.2 -4.5 10.5
Friona  12:25 PM 59.7 54.9 4.9 29.8 33.7 -3.9 9.6
Dimmitt  12:25 PM 58.5 51.7 6.8 30.6 35 -4.5 10.1
Tulia  12:25 PM 61.2 56.2 4.9 33.4 41.1 -7.7 10.8
Silverton  12:25 PM 63.7 59.6 4.1 25.5 37.2 -11.7 11.3
Post  12:25 PM 66.3 67.3 -1 28.7 28.4 0.3 9
Seminole  12:25 PM 61.7 64 -2.3 31.7 25.9 5.8 7.5
Gail  12:25 PM 66 69.1 -3.1 28.6 29 -0.4 7.7
White River Lake  12:25 PM 66.9 65.3 1.7 27.5 30.1 -2.7 9.1
Graham  12:15 PM 64.9 65 -0.1 28.3 28.2 0.1 8.8
Sundown  12:25 PM 62.3 64.5 -2.2 30.3 30.3 0 8.5
Anton  12:25 PM 61.6 62.5 -0.9 32.5 33.4 -0.9 9.4
Fluvanna  12:25 PM 63.5 68.5 -5 31.1 27 4 8.2
Spur  12:25 PM 66.1 68 -1.9 28.1 27.8 0.2 9.2
Northwest Lubbock  12:25 PM 62.7 64.4 -1.7 30.2 31.7 -1.5 9.5
Guthrie  12:25 PM 64.2 69.9 -5.7 34.2 28.8 5.4 9.3
Clarendon  12:25 PM 62.2 57.6 4.7 27 36.9 -10 12.6
Paducah  12:25 PM 64.5 68.1 -3.7 35.1 30.6 4.5 10.2
Snyder  12:25 PM 63.6 68.7 -5.1 36.3 29 7.3 7.8
Memphis  12:25 PM 63.2 61.3 1.9 33.5 37.5 -4 11.6
Jayton  12:25 PM 63.7 69.2 -5.5 37 28.2 8.8 8.6
Pampa  12:25 PM 58.4 51.7 6.8 29.2 39.6 -10.4 14.1
Aspermont  12:25 PM 64.3 72.1 -7.8 37.8 28.5 9.3 8.6
Hereford  12:25 PM 59.3 48.2 11.1 31.8 37 -5.1 9.8
Goodlett  12:25 PM 62.2 70.8 -8.5 37.5 32.2 5.3 11.1
McLean  12:25 PM 59.9 56.9 3 30.4 36.1 -5.8 12.6
Denver City  12:25 PM 61.2 64 -2.8 28.6 26.3 2.3 8
Lake Alan Henry  12:25 PM 66.4 69.4 -3 30.9 27.2 3.8 8.7
Wolfforth  12:25 PM 62.7 66.2 -3.5 30.7 30.2 0.6 9.1
Andrews  12:25 PM 62.3 65.6 -3.2 32.1 25.6 6.4 7.1
Turkey  12:25 PM 64.5 64.5 0 29.4 38.2 -8.8 11.6
Childress  12:25 PM 63.2 68.9 -5.7 35.5 32 3.5 11.2
Tatum  12:25 PM 63.4 63.2 0.3 28.4 26.9 1.5 7.6
Northfield  12:25 PM 64.6 66.4 -1.9 33.8 36.5 -2.7 11.1
Dora  12:25 PM 61.7 59.7 2 28.5 28.9 -0.4 7.7
Northwest San Angelo  12:25 PM 66.9 71.9 -5 37.2 25.2 11.9 6.1
Saint Lawrence  12:25 PM 65.2 67.8 -2.6 27.5 23.9 3.6 6.1
Haskell  12:25 PM 62.7 71.5 -8.8 37.7 26.3 11.4 8.3
Wall  12:25 PM 64.6 75.5 -10.9 38.1 27.6 10.5 6.1
Seymour  12:25 PM 62 72.2 -10.2 40.2 28.1 12.1 9.3
Knox City  12:25 PM 64.3 73.1 -8.9 36.7 27.1 9.7 9.2
Guadalupe Mtns Park  12:25 PM 59.7 52.4 7.2 25.6 22.8 2.8 4.3
Caprock Canyons   12:25 PM 63.2 59.9 3.3 27.5 37.4 -9.8 11.3
Odell  12:25 PM 61.1 71.6 -10.5 42.3 32 10.4 10.2
Coyanosa  12:25 PM 65.3 70.1 -4.8 28.8 24 4.8 5.9
Big Lake  12:25 PM 65.5 68 -2.5 33.3 26.5 6.9 5.6
Junction  12:25 PM 67.8 73.3 -5.5 40.2 29.9 10.4 4.2
Hobbs  12:25 PM 60.1 63.4 -3.3 28.1 25.2 2.9 7.4
Canadian  12:25 PM 59.3 50.9 8.4 33.5 44 -10.5 12.3
Palo Duro Canyon State Park Rim  12:25 PM 61.5 51.1 10.4 26.5 41.1 -14.5 11.5
Bootleg  12:25 PM 58.7 50.9 7.8 29.9 33.1 -3.2 8.6
Sterling City  12:25 PM 66.2 68.2 -2 32.9 26 6.9 6.2
Mertzon  12:25 PM 68.4 70.9 -2.5 35.3 26.9 8.4 5.4
Persimmon Gap  12:25 PM 69.9 70.9 -1 27.5 14.6 12.9 3.3
Weinert  12:25 PM 61.3 71.7 -10.4 39.3 30.2 9.2 8.7
Claude 12 Southwest  12:25 PM 60.2 50.1 10.2 25.7 37.7 -12 12.1
Amarillo 7 South Southeast  12:25 PM 60.4 46.1 14.3 30.1 39.5 -9.3 11.7
Umbarger  12:25 PM 58.4 46.3 12.1 32.2 41 -8.8 10.9
Lomax  12:25 PM 65.2 68.3 -3.1 30.7 27.9 2.8 7.2
Amarillo 9 North Northeast  12:25 PM 58.4 44.8 13.6 32.3 39.2 -6.9 12.5
Aiken 3 West Southwest  12:25 PM 62.7 61.7 1 30.2 36.6 -6.4 10.7
Sweetwater  12:25 PM 61.7 68.3 -6.6 39.4 30.8 8.6 7.3
Dozier  12:25 PM 62.3 60.1 2.1 34.8 39.8 -5 12.1
Amarillo 15 North Northwest  12:25 PM 59.5 46.2 13.4 33.8 39.2 -5.3 12.4
Menard  12:25 PM 67.6 72.5 -4.9 40.5 29.9 10.6 5
Tarzan  12:25 PM 64.2 67.3 -3.1 31.8 29.2 2.5 7.6
Goodnight  12:25 PM 62.4 55.1 7.3 31.1 38.6 -7.5 12.5
Boys Ranch   12:25 PM 58.8 52.4 6.4 36.5 36.9 -0.4 11.6
Fort McKavett  12:25 PM 66.6 72.1 -5.5 38.5 26.8 11.6 4.9
Fort Chadbourne  12:25 PM 62.3 70.3 -8 39.6 31.3 8.3 6.8
Palo Duro Canyon State Park Floor  12:25 PM 65 53.2 11.8 27.9 39.7 -11.7 11.3
Fort Lancaster  12:25 PM 66.9 74.5 -7.6 36.4 23.3 13.1 5.3
Dell City 1N  12:25 PM 63.1 60.4 2.7 31.1 28.4 2.7 1.6
Clyde  12:25 PM 61 70.2 -9.2 40.6 32.1 8.6 6.9
Snyder SSW  12:25 PM 64.1 68 -3.9 36.7 29.6 7.1 7.9
Panhandle  12:25 PM 60.3 45.3 15 25.9 38 -12.1 13.3
Vigo Park  12:25 PM 62.1 55.6 6.5 29.6 38.3 -8.7 11.4
Welch  12:25 PM 62.9 67.1 -4.2 31 30.5 0.5 8.3
Throckmorton  12:25 PM 60.6 71.6 -11 43.9 31.2 12.7 8.3
Sierra Blanca  12:25 PM 67.1 58.4 8.7 22.8 23.4 -0.6 0.9
Fort Lewis CO  12:25 PM 51 44.3 6.7 27.4 31.3 -3.9 1
New Home  12:25 PM 62.5 65.3 -2.8 32.6 31.9 0.7 9.1
McCamey  12:25 PM 66.3 69.8 -3.4 31.4 26.5 4.9 5.8
Stamford  12:25 PM 62.1 72.2 -10.1 39.5 29.7 9.8 8.2
Crowell  12:25 PM 62.6 72.2 -9.6 39.2 30.8 8.3 10.1
Olton  12:25 PM 60.1 60.7 -0.6 31.1 32.4 -1.3 10.1

West Texas Mesonet Home   Site Map/Menu  NWS Lubbock Soil Data  Daily Summary Page  24hr Precip  72hr Precip  Google Plot